sensor_id;sensor_type;location;lat;lon;timestamp;temperature;humidity
53208;DHT22;39093;52.788;6.940;2023-06-05T00:00:36;12.60;99.90
53208;DHT22;39093;52.788;6.940;2023-06-05T00:03:03;12.60;99.90
53208;DHT22;39093;52.788;6.940;2023-06-05T00:05:31;12.60;99.90
53208;DHT22;39093;52.788;6.940;2023-06-05T00:07:58;12.50;99.90
53208;DHT22;39093;52.788;6.940;2023-06-05T00:10:25;12.50;99.90
53208;DHT22;39093;52.788;6.940;2023-06-05T00:12:52;12.50;99.90
53208;DHT22;39093;52.788;6.940;2023-06-05T00:15:19;12.50;99.90
53208;DHT22;39093;52.788;6.940;2023-06-05T00:17:46;12.40;99.90
53208;DHT22;39093;52.788;6.940;2023-06-05T00:20:14;12.40;99.90
53208;DHT22;39093;52.788;6.940;2023-06-05T00:22:41;12.40;99.90
53208;DHT22;39093;52.788;6.940;2023-06-05T00:25:11;12.30;99.90
53208;DHT22;39093;52.788;6.940;2023-06-05T00:27:38;12.30;99.90
53208;DHT22;39093;52.788;6.940;2023-06-05T00:30:08;12.30;99.90
53208;DHT22;39093;52.788;6.940;2023-06-05T00:32:37;12.30;99.90
53208;DHT22;39093;52.788;6.940;2023-06-05T00:35:05;12.20;99.90
53208;DHT22;39093;52.788;6.940;2023-06-05T00:37:32;12.20;99.90
53208;DHT22;39093;52.788;6.940;2023-06-05T00:40:00;12.10;99.90
53208;DHT22;39093;52.788;6.940;2023-06-05T00:42:27;12.10;99.90
53208;DHT22;39093;52.788;6.940;2023-06-05T00:44:54;12.10;99.90
53208;DHT22;39093;52.788;6.940;2023-06-05T00:47:22;12.10;99.90
53208;DHT22;39093;52.788;6.940;2023-06-05T00:49:49;12.10;99.90
53208;DHT22;39093;52.788;6.940;2023-06-05T00:52:16;12.10;99.90
53208;DHT22;39093;52.788;6.940;2023-06-05T00:54:43;12.10;99.90
53208;DHT22;39093;52.788;6.940;2023-06-05T00:57:11;12.10;99.90
53208;DHT22;39093;52.788;6.940;2023-06-05T00:59:38;12.00;99.90
53208;DHT22;39093;52.788;6.940;2023-06-05T01:02:07;11.90;99.90
53208;DHT22;39093;52.788;6.940;2023-06-05T01:04:34;11.90;99.90
53208;DHT22;39093;52.788;6.940;2023-06-05T01:07:03;11.90;99.90
53208;DHT22;39093;52.788;6.940;2023-06-05T01:09:31;11.80;99.90
53208;DHT22;39093;52.788;6.940;2023-06-05T01:12:15;11.80;99.90
53208;DHT22;39093;52.788;6.940;2023-06-05T01:14:45;11.80;99.90
53208;DHT22;39093;52.788;6.940;2023-06-05T01:17:16;11.80;99.90
53208;DHT22;39093;52.788;6.940;2023-06-05T01:19:46;11.70;99.90
53208;DHT22;39093;52.788;6.940;2023-06-05T01:22:13;11.70;99.90
53208;DHT22;39093;52.788;6.940;2023-06-05T01:24:40;11.80;99.90
53208;DHT22;39093;52.788;6.940;2023-06-05T01:27:41;11.70;99.90
53208;DHT22;39093;52.788;6.940;2023-06-05T01:30:19;11.70;99.90
53208;DHT22;39093;52.788;6.940;2023-06-05T01:32:53;11.70;99.90
53208;DHT22;39093;52.788;6.940;2023-06-05T01:35:22;11.60;99.90
53208;DHT22;39093;52.788;6.940;2023-06-05T01:37:55;11.60;99.90
53208;DHT22;39093;52.788;6.940;2023-06-05T01:40:25;11.50;99.90
53208;DHT22;39093;52.788;6.940;2023-06-05T01:42:54;11.50;99.90
53208;DHT22;39093;52.788;6.940;2023-06-05T01:45:22;11.50;99.90
53208;DHT22;39093;52.788;6.940;2023-06-05T01:47:50;11.50;99.90
53208;DHT22;39093;52.788;6.940;2023-06-05T01:50:17;11.50;99.90
53208;DHT22;39093;52.788;6.940;2023-06-05T01:52:45;11.40;99.90
53208;DHT22;39093;52.788;6.940;2023-06-05T01:55:18;11.40;99.90
53208;DHT22;39093;52.788;6.940;2023-06-05T01:57:46;11.40;99.90
53208;DHT22;39093;52.788;6.940;2023-06-05T02:00:14;11.40;99.90
53208;DHT22;39093;52.788;6.940;2023-06-05T02:02:44;11.30;99.90
53208;DHT22;39093;52.788;6.940;2023-06-05T02:05:13;11.30;99.90
53208;DHT22;39093;52.788;6.940;2023-06-05T02:07:44;11.30;99.90
53208;DHT22;39093;52.788;6.940;2023-06-05T02:10:16;11.30;99.90
53208;DHT22;39093;52.788;6.940;2023-06-05T02:12:46;11.20;99.90
53208;DHT22;39093;52.788;6.940;2023-06-05T02:15:14;11.20;99.90
53208;DHT22;39093;52.788;6.940;2023-06-05T02:17:42;11.10;99.90
53208;DHT22;39093;52.788;6.940;2023-06-05T02:20:12;11.10;99.90
53208;DHT22;39093;52.788;6.940;2023-06-05T02:22:39;11.10;99.90
53208;DHT22;39093;52.788;6.940;2023-06-05T02:25:08;11.00;99.90
53208;DHT22;39093;52.788;6.940;2023-06-05T02:27:37;11.10;99.90
53208;DHT22;39093;52.788;6.940;2023-06-05T02:30:05;11.10;99.90
53208;DHT22;39093;52.788;6.940;2023-06-05T02:32:34;11.10;99.90
53208;DHT22;39093;52.788;6.940;2023-06-05T02:35:03;11.10;99.90
53208;DHT22;39093;52.788;6.940;2023-06-05T02:37:31;11.10;99.90
53208;DHT22;39093;52.788;6.940;2023-06-05T02:40:04;11.00;99.90
53208;DHT22;39093;52.788;6.940;2023-06-05T02:42:34;11.00;99.90
53208;DHT22;39093;52.788;6.940;2023-06-05T02:45:03;11.00;99.90
53208;DHT22;39093;52.788;6.940;2023-06-05T02:47:30;11.00;99.90
53208;DHT22;39093;52.788;6.940;2023-06-05T02:49:58;11.00;99.90
53208;DHT22;39093;52.788;6.940;2023-06-05T02:52:25;11.00;99.90
53208;DHT22;39093;52.788;6.940;2023-06-05T02:54:52;11.00;99.90
53208;DHT22;39093;52.788;6.940;2023-06-05T02:57:19;10.90;99.90
53208;DHT22;39093;52.788;6.940;2023-06-05T02:59:46;10.90;99.90
53208;DHT22;39093;52.788;6.940;2023-06-05T03:02:13;10.90;99.90
53208;DHT22;39093;52.788;6.940;2023-06-05T03:04:39;10.90;99.90
53208;DHT22;39093;52.788;6.940;2023-06-05T03:07:06;10.80;99.90
53208;DHT22;39093;52.788;6.940;2023-06-05T03:09:36;10.80;99.90
53208;DHT22;39093;52.788;6.940;2023-06-05T03:12:04;10.80;99.90
53208;DHT22;39093;52.788;6.940;2023-06-05T03:14:31;10.80;99.90
53208;DHT22;39093;52.788;6.940;2023-06-05T03:16:58;10.80;99.90
53208;DHT22;39093;52.788;6.940;2023-06-05T03:19:26;10.80;99.90
53208;DHT22;39093;52.788;6.940;2023-06-05T03:21:53;10.70;99.90
53208;DHT22;39093;52.788;6.940;2023-06-05T03:24:21;10.80;99.90
53208;DHT22;39093;52.788;6.940;2023-06-05T03:26:51;10.70;99.90
53208;DHT22;39093;52.788;6.940;2023-06-05T03:29:18;10.70;99.90
53208;DHT22;39093;52.788;6.940;2023-06-05T03:31:45;10.70;99.90
53208;DHT22;39093;52.788;6.940;2023-06-05T03:34:12;10.70;99.90
53208;DHT22;39093;52.788;6.940;2023-06-05T03:36:39;10.70;99.90
53208;DHT22;39093;52.788;6.940;2023-06-05T03:39:06;10.60;99.90
53208;DHT22;39093;52.788;6.940;2023-06-05T03:41:33;10.60;99.90
53208;DHT22;39093;52.788;6.940;2023-06-05T03:44:01;10.50;99.90
53208;DHT22;39093;52.788;6.940;2023-06-05T03:46:30;10.60;99.90
53208;DHT22;39093;52.788;6.940;2023-06-05T03:48:57;10.50;99.90
53208;DHT22;39093;52.788;6.940;2023-06-05T03:51:32;10.50;99.90
53208;DHT22;39093;52.788;6.940;2023-06-05T03:54:00;10.60;99.90
53208;DHT22;39093;52.788;6.940;2023-06-05T03:56:27;10.60;99.90
53208;DHT22;39093;52.788;6.940;2023-06-05T03:59:09;10.50;99.90
53208;DHT22;39093;52.788;6.940;2023-06-05T04:01:38;10.50;99.90
53208;DHT22;39093;52.788;6.940;2023-06-05T04:04:05;10.60;99.90
53208;DHT22;39093;52.788;6.940;2023-06-05T04:06:32;10.50;99.90
53208;DHT22;39093;52.788;6.940;2023-06-05T04:08:59;10.60;99.90
53208;DHT22;39093;52.788;6.940;2023-06-05T04:11:26;10.60;99.90
53208;DHT22;39093;52.788;6.940;2023-06-05T04:13:56;10.50;99.90
53208;DHT22;39093;52.788;6.940;2023-06-05T04:16:23;10.60;99.90
53208;DHT22;39093;52.788;6.940;2023-06-05T04:18:50;10.60;99.90
53208;DHT22;39093;52.788;6.940;2023-06-05T04:21:17;10.60;99.90
53208;DHT22;39093;52.788;6.940;2023-06-05T04:23:44;10.60;99.90
53208;DHT22;39093;52.788;6.940;2023-06-05T04:26:11;10.70;99.90
53208;DHT22;39093;52.788;6.940;2023-06-05T04:28:38;10.60;99.90
53208;DHT22;39093;52.788;6.940;2023-06-05T04:31:05;10.70;99.90
53208;DHT22;39093;52.788;6.940;2023-06-05T04:33:33;10.80;99.90
53208;DHT22;39093;52.788;6.940;2023-06-05T04:35:59;10.80;99.90
53208;DHT22;39093;52.788;6.940;2023-06-05T04:38:27;10.80;99.90
53208;DHT22;39093;52.788;6.940;2023-06-05T04:40:54;10.80;99.90
53208;DHT22;39093;52.788;6.940;2023-06-05T04:43:21;10.80;99.90
53208;DHT22;39093;52.788;6.940;2023-06-05T04:45:49;10.90;99.90
53208;DHT22;39093;52.788;6.940;2023-06-05T04:48:16;10.80;99.90
53208;DHT22;39093;52.788;6.940;2023-06-05T04:50:43;10.80;99.90
53208;DHT22;39093;52.788;6.940;2023-06-05T04:53:10;10.90;99.90
53208;DHT22;39093;52.788;6.940;2023-06-05T04:55:37;10.90;99.90
53208;DHT22;39093;52.788;6.940;2023-06-05T04:58:05;11.00;99.90
53208;DHT22;39093;52.788;6.940;2023-06-05T05:00:33;11.00;99.90
53208;DHT22;39093;52.788;6.940;2023-06-05T05:03:00;11.00;99.90
53208;DHT22;39093;52.788;6.940;2023-06-05T05:05:29;11.00;99.90
53208;DHT22;39093;52.788;6.940;2023-06-05T05:07:56;11.10;99.90
53208;DHT22;39093;52.788;6.940;2023-06-05T05:10:25;11.20;99.90
53208;DHT22;39093;52.788;6.940;2023-06-05T05:12:52;11.20;99.90
53208;DHT22;39093;52.788;6.940;2023-06-05T05:15:19;11.20;99.90
53208;DHT22;39093;52.788;6.940;2023-06-05T05:17:48;11.30;99.90
53208;DHT22;39093;52.788;6.940;2023-06-05T05:20:16;11.20;99.90
53208;DHT22;39093;52.788;6.940;2023-06-05T05:22:43;11.30;99.90
53208;DHT22;39093;52.788;6.940;2023-06-05T05:25:11;11.30;99.90
53208;DHT22;39093;52.788;6.940;2023-06-05T05:27:38;11.30;99.90
53208;DHT22;39093;52.788;6.940;2023-06-05T05:30:05;11.40;99.90
53208;DHT22;39093;52.788;6.940;2023-06-05T05:32:32;11.40;99.90
53208;DHT22;39093;52.788;6.940;2023-06-05T05:34:59;11.40;99.90
53208;DHT22;39093;52.788;6.940;2023-06-05T05:37:26;11.50;99.90
53208;DHT22;39093;52.788;6.940;2023-06-05T05:39:53;11.60;99.90
53208;DHT22;39093;52.788;6.940;2023-06-05T05:42:20;11.60;99.90
53208;DHT22;39093;52.788;6.940;2023-06-05T05:44:47;11.70;99.90
53208;DHT22;39093;52.788;6.940;2023-06-05T05:47:15;11.80;99.90
53208;DHT22;39093;52.788;6.940;2023-06-05T05:49:42;11.80;99.90
53208;DHT22;39093;52.788;6.940;2023-06-05T05:52:09;11.80;99.90
53208;DHT22;39093;52.788;6.940;2023-06-05T05:54:36;11.80;99.90
53208;DHT22;39093;52.788;6.940;2023-06-05T05:57:04;11.80;99.90
53208;DHT22;39093;52.788;6.940;2023-06-05T05:59:31;11.80;99.90
53208;DHT22;39093;52.788;6.940;2023-06-05T06:01:58;11.80;99.90
53208;DHT22;39093;52.788;6.940;2023-06-05T06:04:27;11.90;99.90
53208;DHT22;39093;52.788;6.940;2023-06-05T06:06:55;12.00;99.90
53208;DHT22;39093;52.788;6.940;2023-06-05T06:09:23;11.90;99.90
53208;DHT22;39093;52.788;6.940;2023-06-05T06:11:51;12.00;99.90
53208;DHT22;39093;52.788;6.940;2023-06-05T06:14:22;12.10;99.90
53208;DHT22;39093;52.788;6.940;2023-06-05T06:16:50;12.10;99.90
53208;DHT22;39093;52.788;6.940;2023-06-05T06:19:18;12.20;99.90
53208;DHT22;39093;52.788;6.940;2023-06-05T06:21:50;12.40;99.90
53208;DHT22;39093;52.788;6.940;2023-06-05T06:24:20;12.60;99.90
53208;DHT22;39093;52.788;6.940;2023-06-05T06:26:49;12.90;99.90
53208;DHT22;39093;52.788;6.940;2023-06-05T06:29:19;13.20;99.90
53208;DHT22;39093;52.788;6.940;2023-06-05T06:31:50;13.40;99.90
53208;DHT22;39093;52.788;6.940;2023-06-05T06:34:17;13.70;99.90
53208;DHT22;39093;52.788;6.940;2023-06-05T06:36:45;13.90;99.90
53208;DHT22;39093;52.788;6.940;2023-06-05T06:39:13;14.20;99.90
53208;DHT22;39093;52.788;6.940;2023-06-05T06:41:40;14.40;99.90
53208;DHT22;39093;52.788;6.940;2023-06-05T06:44:07;14.60;99.90
53208;DHT22;39093;52.788;6.940;2023-06-05T06:46:34;14.80;99.90
53208;DHT22;39093;52.788;6.940;2023-06-05T06:49:02;15.00;99.90
53208;DHT22;39093;52.788;6.940;2023-06-05T06:51:29;15.30;99.90
53208;DHT22;39093;52.788;6.940;2023-06-05T06:53:56;15.50;99.90
53208;DHT22;39093;52.788;6.940;2023-06-05T06:56:23;15.70;99.90
53208;DHT22;39093;52.788;6.940;2023-06-05T06:58:53;15.80;99.90
53208;DHT22;39093;52.788;6.940;2023-06-05T07:01:20;16.00;99.90
53208;DHT22;39093;52.788;6.940;2023-06-05T07:03:47;16.10;99.90
53208;DHT22;39093;52.788;6.940;2023-06-05T07:06:14;16.20;99.90
53208;DHT22;39093;52.788;6.940;2023-06-05T07:08:42;16.40;99.90
53208;DHT22;39093;52.788;6.940;2023-06-05T07:11:08;16.60;99.90
53208;DHT22;39093;52.788;6.940;2023-06-05T07:13:36;16.70;99.90
53208;DHT22;39093;52.788;6.940;2023-06-05T07:16:03;16.80;99.90
53208;DHT22;39093;52.788;6.940;2023-06-05T07:18:30;16.70;99.90
53208;DHT22;39093;52.788;6.940;2023-06-05T07:20:57;16.80;99.90
53208;DHT22;39093;52.788;6.940;2023-06-05T07:23:24;16.80;99.90
53208;DHT22;39093;52.788;6.940;2023-06-05T07:25:51;16.90;99.90
53208;DHT22;39093;52.788;6.940;2023-06-05T07:28:19;16.90;99.90
53208;DHT22;39093;52.788;6.940;2023-06-05T07:30:46;17.00;99.90
53208;DHT22;39093;52.788;6.940;2023-06-05T07:33:13;17.10;99.90
53208;DHT22;39093;52.788;6.940;2023-06-05T07:35:56;17.10;99.90
53208;DHT22;39093;52.788;6.940;2023-06-05T07:38:23;17.00;99.90
53208;DHT22;39093;52.788;6.940;2023-06-05T07:40:50;17.10;99.90
53208;DHT22;39093;52.788;6.940;2023-06-05T07:43:17;17.20;99.90
53208;DHT22;39093;52.788;6.940;2023-06-05T07:45:44;17.30;99.90
53208;DHT22;39093;52.788;6.940;2023-06-05T07:48:11;17.40;99.90
53208;DHT22;39093;52.788;6.940;2023-06-05T07:50:40;17.40;99.90
53208;DHT22;39093;52.788;6.940;2023-06-05T07:53:09;17.50;99.90
53208;DHT22;39093;52.788;6.940;2023-06-05T07:55:36;17.60;99.90
53208;DHT22;39093;52.788;6.940;2023-06-05T07:58:03;17.80;99.90
53208;DHT22;39093;52.788;6.940;2023-06-05T08:00:30;17.90;99.90
53208;DHT22;39093;52.788;6.940;2023-06-05T08:02:57;18.00;99.90
53208;DHT22;39093;52.788;6.940;2023-06-05T08:05:26;18.10;99.90
53208;DHT22;39093;52.788;6.940;2023-06-05T08:07:53;18.10;99.10
53208;DHT22;39093;52.788;6.940;2023-06-05T08:10:24;18.00;99.90
53208;DHT22;39093;52.788;6.940;2023-06-05T08:12:51;18.00;99.60
53208;DHT22;39093;52.788;6.940;2023-06-05T08:15:18;18.00;99.60
53208;DHT22;39093;52.788;6.940;2023-06-05T08:17:45;18.00;99.70
53208;DHT22;39093;52.788;6.940;2023-06-05T08:20:12;17.90;99.50
53208;DHT22;39093;52.788;6.940;2023-06-05T08:22:40;17.90;99.70
53208;DHT22;39093;52.788;6.940;2023-06-05T08:25:09;18.00;99.80
53208;DHT22;39093;52.788;6.940;2023-06-05T08:27:36;18.10;99.90
53208;DHT22;39093;52.788;6.940;2023-06-05T08:30:03;18.00;98.70
53208;DHT22;39093;52.788;6.940;2023-06-05T08:32:33;18.10;99.50
53208;DHT22;39093;52.788;6.940;2023-06-05T08:35:03;18.10;99.50
53208;DHT22;39093;52.788;6.940;2023-06-05T08:37:32;18.30;99.90
53208;DHT22;39093;52.788;6.940;2023-06-05T08:39:59;18.40;99.60
53208;DHT22;39093;52.788;6.940;2023-06-05T08:42:28;18.50;99.30
53208;DHT22;39093;52.788;6.940;2023-06-05T08:44:55;18.40;98.40
53208;DHT22;39093;52.788;6.940;2023-06-05T08:47:29;18.50;98.70
53208;DHT22;39093;52.788;6.940;2023-06-05T08:50:05;18.40;98.40
53208;DHT22;39093;52.788;6.940;2023-06-05T08:52:37;18.50;98.80
53208;DHT22;39093;52.788;6.940;2023-06-05T08:55:05;18.50;98.80
53208;DHT22;39093;52.788;6.940;2023-06-05T08:57:43;18.50;99.10
53208;DHT22;39093;52.788;6.940;2023-06-05T09:00:15;18.60;98.80
53208;DHT22;39093;52.788;6.940;2023-06-05T09:02:43;18.60;98.70
53208;DHT22;39093;52.788;6.940;2023-06-05T09:05:17;18.60;98.50
53208;DHT22;39093;52.788;6.940;2023-06-05T09:07:44;18.70;98.10
53208;DHT22;39093;52.788;6.940;2023-06-05T09:10:27;18.60;98.10
53208;DHT22;39093;52.788;6.940;2023-06-05T09:12:59;18.70;98.30
53208;DHT22;39093;52.788;6.940;2023-06-05T09:15:33;18.60;98.10
53208;DHT22;39093;52.788;6.940;2023-06-05T09:18:11;18.70;97.80
53208;DHT22;39093;52.788;6.940;2023-06-05T09:20:41;18.60;98.30
53208;DHT22;39093;52.788;6.940;2023-06-05T09:23:27;18.80;99.30
53208;DHT22;39093;52.788;6.940;2023-06-05T09:26:00;18.90;98.60
53208;DHT22;39093;52.788;6.940;2023-06-05T09:28:28;19.00;98.60
53208;DHT22;39093;52.788;6.940;2023-06-05T09:30:56;19.10;98.20
53208;DHT22;39093;52.788;6.940;2023-06-05T09:33:25;19.20;97.70
53208;DHT22;39093;52.788;6.940;2023-06-05T09:36:09;19.20;98.10
53208;DHT22;39093;52.788;6.940;2023-06-05T09:38:39;19.20;98.60
53208;DHT22;39093;52.788;6.940;2023-06-05T09:41:11;19.20;98.20
53208;DHT22;39093;52.788;6.940;2023-06-05T09:43:38;19.20;98.00
53208;DHT22;39093;52.788;6.940;2023-06-05T09:46:10;19.20;97.90
53208;DHT22;39093;52.788;6.940;2023-06-05T09:48:38;19.30;97.60
53208;DHT22;39093;52.788;6.940;2023-06-05T09:51:09;19.30;97.50
53208;DHT22;39093;52.788;6.940;2023-06-05T09:53:43;19.40;97.50
53208;DHT22;39093;52.788;6.940;2023-06-05T09:56:15;19.60;97.90
53208;DHT22;39093;52.788;6.940;2023-06-05T09:58:44;19.60;97.10
53208;DHT22;39093;52.788;6.940;2023-06-05T10:01:17;19.80;96.60
53208;DHT22;39093;52.788;6.940;2023-06-05T10:03:52;19.80;97.00
53208;DHT22;39093;52.788;6.940;2023-06-05T10:06:20;19.90;97.50
53208;DHT22;39093;52.788;6.940;2023-06-05T10:08:51;19.90;96.20
53208;DHT22;39093;52.788;6.940;2023-06-05T10:11:20;19.90;97.20
53208;DHT22;39093;52.788;6.940;2023-06-05T10:13:48;20.00;96.60
53208;DHT22;39093;52.788;6.940;2023-06-05T10:16:18;20.20;96.90
53208;DHT22;39093;52.788;6.940;2023-06-05T10:18:54;20.30;96.90
53208;DHT22;39093;52.788;6.940;2023-06-05T10:21:29;20.50;96.90
53208;DHT22;39093;52.788;6.940;2023-06-05T10:24:05;20.60;95.40
53208;DHT22;39093;52.788;6.940;2023-06-05T10:31:58;20.60;96.40
53208;DHT22;39093;52.788;6.940;2023-06-05T10:37:47;20.70;93.80
53208;DHT22;39093;52.788;6.940;2023-06-05T10:40:20;20.70;94.70
53208;DHT22;39093;52.788;6.940;2023-06-05T10:42:48;20.80;95.40
53208;DHT22;39093;52.788;6.940;2023-06-05T10:45:31;21.00;95.20
53208;DHT22;39093;52.788;6.940;2023-06-05T10:47:58;21.00;94.20
53208;DHT22;39093;52.788;6.940;2023-06-05T10:50:28;21.20;93.90
53208;DHT22;39093;52.788;6.940;2023-06-05T10:52:58;21.20;93.90
53208;DHT22;39093;52.788;6.940;2023-06-05T10:55:26;21.10;93.60
53208;DHT22;39093;52.788;6.940;2023-06-05T11:00:31;21.20;93.40
53208;DHT22;39093;52.788;6.940;2023-06-05T11:02:58;21.40;93.70
53208;DHT22;39093;52.788;6.940;2023-06-05T11:05:28;21.30;92.90
53208;DHT22;39093;52.788;6.940;2023-06-05T11:08:15;21.40;93.80
53208;DHT22;39093;52.788;6.940;2023-06-05T11:11:05;21.80;93.40
53208;DHT22;39093;52.788;6.940;2023-06-05T11:13:54;21.90;92.60
53208;DHT22;39093;52.788;6.940;2023-06-05T11:16:40;22.00;92.70
53208;DHT22;39093;52.788;6.940;2023-06-05T11:22:06;22.20;92.60
53208;DHT22;39093;52.788;6.940;2023-06-05T11:24:37;22.40;92.60
53208;DHT22;39093;52.788;6.940;2023-06-05T11:27:05;22.60;93.10
53208;DHT22;39093;52.788;6.940;2023-06-05T11:29:33;22.90;92.60
53208;DHT22;39093;52.788;6.940;2023-06-05T11:32:00;23.10;91.80
53208;DHT22;39093;52.788;6.940;2023-06-05T11:34:37;23.10;91.20
53208;DHT22;39093;52.788;6.940;2023-06-05T11:37:25;23.10;90.00
53208;DHT22;39093;52.788;6.940;2023-06-05T11:39:54;23.20;90.20
53208;DHT22;39093;52.788;6.940;2023-06-05T11:42:22;23.20;90.20
53208;DHT22;39093;52.788;6.940;2023-06-05T11:44:52;23.10;87.50
53208;DHT22;39093;52.788;6.940;2023-06-05T11:47:27;23.10;87.20
53208;DHT22;39093;52.788;6.940;2023-06-05T11:50:09;23.20;90.60
53208;DHT22;39093;52.788;6.940;2023-06-05T11:52:37;23.30;87.60
53208;DHT22;39093;52.788;6.940;2023-06-05T11:55:15;23.60;89.50
53208;DHT22;39093;52.788;6.940;2023-06-05T11:57:46;23.90;87.60
53208;DHT22;39093;52.788;6.940;2023-06-05T12:00:23;24.20;88.30
53208;DHT22;39093;52.788;6.940;2023-06-05T12:02:50;24.30;84.70
53208;DHT22;39093;52.788;6.940;2023-06-05T12:05:18;24.40;85.50
53208;DHT22;39093;52.788;6.940;2023-06-05T12:07:45;24.30;84.20
53208;DHT22;39093;52.788;6.940;2023-06-05T12:10:12;24.50;84.30
53208;DHT22;39093;52.788;6.940;2023-06-05T12:12:52;24.70;84.50
53208;DHT22;39093;52.788;6.940;2023-06-05T12:15:20;24.70;83.10
53208;DHT22;39093;52.788;6.940;2023-06-05T12:17:55;24.90;84.30
53208;DHT22;39093;52.788;6.940;2023-06-05T12:20:22;25.30;83.00
53208;DHT22;39093;52.788;6.940;2023-06-05T12:22:49;25.20;81.80
53208;DHT22;39093;52.788;6.940;2023-06-05T12:25:21;25.50;82.60
53208;DHT22;39093;52.788;6.940;2023-06-05T12:27:49;25.50;81.60
53208;DHT22;39093;52.788;6.940;2023-06-05T12:30:17;25.70;80.40
53208;DHT22;39093;52.788;6.940;2023-06-05T12:32:45;25.80;82.00
53208;DHT22;39093;52.788;6.940;2023-06-05T12:35:20;25.90;80.10
53208;DHT22;39093;52.788;6.940;2023-06-05T12:37:48;25.80;78.10
53208;DHT22;39093;52.788;6.940;2023-06-05T12:40:17;25.70;80.60
53208;DHT22;39093;52.788;6.940;2023-06-05T12:43:02;25.70;79.40
53208;DHT22;39093;52.788;6.940;2023-06-05T12:45:29;26.10;76.70
53208;DHT22;39093;52.788;6.940;2023-06-05T12:47:57;26.20;78.40
53208;DHT22;39093;52.788;6.940;2023-06-05T12:50:24;26.20;78.40
53208;DHT22;39093;52.788;6.940;2023-06-05T12:52:52;26.50;77.70
53208;DHT22;39093;52.788;6.940;2023-06-05T12:55:19;26.60;76.10
53208;DHT22;39093;52.788;6.940;2023-06-05T12:57:47;26.50;75.50
53208;DHT22;39093;52.788;6.940;2023-06-05T13:00:14;26.90;76.40
53208;DHT22;39093;52.788;6.940;2023-06-05T13:02:43;27.20;75.10
53208;DHT22;39093;52.788;6.940;2023-06-05T13:05:17;27.30;74.00
53208;DHT22;39093;52.788;6.940;2023-06-05T13:07:44;27.10;74.90
53208;DHT22;39093;52.788;6.940;2023-06-05T13:10:12;26.80;74.30
53208;DHT22;39093;52.788;6.940;2023-06-05T13:12:39;27.10;73.70
53208;DHT22;39093;52.788;6.940;2023-06-05T13:15:06;27.30;73.00
53208;DHT22;39093;52.788;6.940;2023-06-05T13:17:34;27.50;74.40
53208;DHT22;39093;52.788;6.940;2023-06-05T13:20:03;27.80;74.80
53208;DHT22;39093;52.788;6.940;2023-06-05T13:22:35;28.10;73.90
53208;DHT22;39093;52.788;6.940;2023-06-05T13:25:02;28.40;70.10
53208;DHT22;39093;52.788;6.940;2023-06-05T13:27:30;28.10;69.20
53208;DHT22;39093;52.788;6.940;2023-06-05T13:29:56;27.80;70.20
53208;DHT22;39093;52.788;6.940;2023-06-05T13:32:23;27.90;70.80
53208;DHT22;39093;52.788;6.940;2023-06-05T13:34:50;28.30;72.30
53208;DHT22;39093;52.788;6.940;2023-06-05T13:37:18;28.50;69.30
53208;DHT22;39093;52.788;6.940;2023-06-05T13:39:48;28.90;69.10
53208;DHT22;39093;52.788;6.940;2023-06-05T13:42:15;28.90;69.40
53208;DHT22;39093;52.788;6.940;2023-06-05T13:44:43;28.70;67.60
53208;DHT22;39093;52.788;6.940;2023-06-05T13:47:10;28.20;69.10
53208;DHT22;39093;52.788;6.940;2023-06-05T13:49:37;28.30;70.00
53208;DHT22;39093;52.788;6.940;2023-06-05T13:52:04;28.80;68.80
53208;DHT22;39093;52.788;6.940;2023-06-05T13:54:31;29.00;68.30
53208;DHT22;39093;52.788;6.940;2023-06-05T13:56:58;28.90;68.60
53208;DHT22;39093;52.788;6.940;2023-06-05T13:59:26;28.80;70.10
53208;DHT22;39093;52.788;6.940;2023-06-05T14:01:53;29.10;68.70
53208;DHT22;39093;52.788;6.940;2023-06-05T14:04:20;29.20;67.50
53208;DHT22;39093;52.788;6.940;2023-06-05T14:06:47;29.20;68.10
53208;DHT22;39093;52.788;6.940;2023-06-05T14:09:14;29.20;68.40
53208;DHT22;39093;52.788;6.940;2023-06-05T14:11:41;29.10;68.60
53208;DHT22;39093;52.788;6.940;2023-06-05T14:14:12;29.60;69.10
53208;DHT22;39093;52.788;6.940;2023-06-05T14:16:39;29.90;68.20
53208;DHT22;39093;52.788;6.940;2023-06-05T14:19:06;29.60;65.80
53208;DHT22;39093;52.788;6.940;2023-06-05T14:21:33;29.60;67.40
53208;DHT22;39093;52.788;6.940;2023-06-05T14:24:00;29.50;65.30
53208;DHT22;39093;52.788;6.940;2023-06-05T14:26:27;29.20;67.50
53208;DHT22;39093;52.788;6.940;2023-06-05T14:28:57;29.00;68.60
53208;DHT22;39093;52.788;6.940;2023-06-05T14:31:24;29.30;68.50
53208;DHT22;39093;52.788;6.940;2023-06-05T14:33:54;29.40;66.20
53208;DHT22;39093;52.788;6.940;2023-06-05T14:36:21;29.30;68.10
53208;DHT22;39093;52.788;6.940;2023-06-05T14:38:48;29.40;66.90
53208;DHT22;39093;52.788;6.940;2023-06-05T14:41:15;29.10;67.30
53208;DHT22;39093;52.788;6.940;2023-06-05T14:43:42;29.50;67.70
53208;DHT22;39093;52.788;6.940;2023-06-05T14:46:09;29.10;67.20
53208;DHT22;39093;52.788;6.940;2023-06-05T14:48:36;28.60;66.10
53208;DHT22;39093;52.788;6.940;2023-06-05T14:51:03;27.70;67.40
53208;DHT22;39093;52.788;6.940;2023-06-05T14:53:30;27.80;69.20
53208;DHT22;39093;52.788;6.940;2023-06-05T14:55:58;28.00;66.90
53208;DHT22;39093;52.788;6.940;2023-06-05T14:58:26;27.60;68.50
53208;DHT22;39093;52.788;6.940;2023-06-05T15:00:53;27.40;69.70
53208;DHT22;39093;52.788;6.940;2023-06-05T15:03:35;27.30;68.70
53208;DHT22;39093;52.788;6.940;2023-06-05T15:06:02;27.10;68.80
53208;DHT22;39093;52.788;6.940;2023-06-05T15:08:46;27.20;69.70
53208;DHT22;39093;52.788;6.940;2023-06-05T15:11:13;27.30;68.40
53208;DHT22;39093;52.788;6.940;2023-06-05T15:13:40;27.20;68.70
53208;DHT22;39093;52.788;6.940;2023-06-05T15:16:08;26.90;68.40
53208;DHT22;39093;52.788;6.940;2023-06-05T15:18:36;26.90;70.10
53208;DHT22;39093;52.788;6.940;2023-06-05T15:21:03;26.90;69.00
53208;DHT22;39093;52.788;6.940;2023-06-05T15:23:30;26.90;69.10
53208;DHT22;39093;52.788;6.940;2023-06-05T15:25:57;26.80;70.20
53208;DHT22;39093;52.788;6.940;2023-06-05T15:28:24;26.50;70.20
53208;DHT22;39093;52.788;6.940;2023-06-05T15:30:51;26.20;69.90
53208;DHT22;39093;52.788;6.940;2023-06-05T15:33:17;25.60;71.10
53208;DHT22;39093;52.788;6.940;2023-06-05T15:35:45;24.80;71.60
53208;DHT22;39093;52.788;6.940;2023-06-05T15:38:12;24.30;72.50
53208;DHT22;39093;52.788;6.940;2023-06-05T15:40:39;24.00;73.20
53208;DHT22;39093;52.788;6.940;2023-06-05T15:43:08;23.50;74.60
53208;DHT22;39093;52.788;6.940;2023-06-05T15:45:35;23.30;76.10
53208;DHT22;39093;52.788;6.940;2023-06-05T15:48:03;22.80;75.60
53208;DHT22;39093;52.788;6.940;2023-06-05T15:50:31;22.30;76.90
53208;DHT22;39093;52.788;6.940;2023-06-05T15:52:58;22.20;77.90
53208;DHT22;39093;52.788;6.940;2023-06-05T15:55:26;22.00;77.50